sensor_id;sensor_type;location;lat;lon;timestamp;pressure;altitude;pressure_sealevel;temperature
51561;BMP280;37654;51.262;17.058;2023-01-19T00:00:08;98133.34;;;1.36
51561;BMP280;37654;51.262;17.058;2023-01-19T00:02:35;98146.00;;;1.44
51561;BMP280;37654;51.262;17.058;2023-01-19T00:05:01;98149.34;;;1.50
51561;BMP280;37654;51.262;17.058;2023-01-19T00:07:29;98158.75;;;1.47
51561;BMP280;37654;51.262;17.058;2023-01-19T00:09:54;98168.06;;;1.51
51561;BMP280;37654;51.262;17.058;2023-01-19T00:12:20;98172.28;;;1.52
51561;BMP280;37654;51.262;17.058;2023-01-19T00:14:45;98179.03;;;1.56
51561;BMP280;37654;51.262;17.058;2023-01-19T00:17:11;98182.50;;;1.52
51561;BMP280;37654;51.262;17.058;2023-01-19T00:19:36;98195.25;;;1.52
51561;BMP280;37654;51.262;17.058;2023-01-19T00:22:02;98197.88;;;1.44
51561;BMP280;37654;51.262;17.058;2023-01-19T00:24:27;98198.78;;;1.42
51561;BMP280;37654;51.262;17.058;2023-01-19T00:26:52;98192.84;;;1.40
51561;BMP280;37654;51.262;17.058;2023-01-19T00:29:18;98201.38;;;1.36
51561;BMP280;37654;51.262;17.058;2023-01-19T00:31:44;98209.00;;;1.42
51561;BMP280;37654;51.262;17.058;2023-01-19T00:34:10;98207.25;;;1.44
51561;BMP280;37654;51.262;17.058;2023-01-19T00:36:35;98219.19;;;1.42
51561;BMP280;37654;51.262;17.058;2023-01-19T00:39:00;98222.59;;;1.38
51561;BMP280;37654;51.262;17.058;2023-01-19T00:41:26;98233.63;;;1.46
51561;BMP280;37654;51.262;17.058;2023-01-19T00:44:05;98236.19;;;1.43
51561;BMP280;37654;51.262;17.058;2023-01-19T00:46:31;98230.19;;;1.47
51561;BMP280;37654;51.262;17.058;2023-01-19T00:48:57;98228.53;;;1.43
51561;BMP280;37654;51.262;17.058;2023-01-19T00:51:22;98233.63;;;1.46
51561;BMP280;37654;51.262;17.058;2023-01-19T00:53:48;98228.50;;;1.46
51561;BMP280;37654;51.262;17.058;2023-01-19T00:56:13;98233.56;;;1.50
51561;BMP280;37654;51.262;17.058;2023-01-19T00:58:38;98237.81;;;1.53
51561;BMP280;37654;51.262;17.058;2023-01-19T01:01:04;98247.16;;;1.51
51561;BMP280;37654;51.262;17.058;2023-01-19T01:03:30;98245.47;;;1.50
51561;BMP280;37654;51.262;17.058;2023-01-19T01:05:56;98249.75;;;1.49
51561;BMP280;37654;51.262;17.058;2023-01-19T01:08:21;98255.72;;;1.44
51561;BMP280;37654;51.262;17.058;2023-01-19T01:10:47;98255.72;;;1.44
51561;BMP280;37654;51.262;17.058;2023-01-19T01:13:12;98261.72;;;1.40
51561;BMP280;37654;51.262;17.058;2023-01-19T01:15:38;98265.16;;;1.37
51561;BMP280;37654;51.262;17.058;2023-01-19T01:18:03;98281.28;;;1.41
51561;BMP280;37654;51.262;17.058;2023-01-19T01:20:28;98274.56;;;1.33
51561;BMP280;37654;51.262;17.058;2023-01-19T01:22:55;98270.34;;;1.26
51561;BMP280;37654;51.262;17.058;2023-01-19T01:25:23;98277.13;;;1.27
51561;BMP280;37654;51.262;17.058;2023-01-19T01:27:49;98277.16;;;1.28
51561;BMP280;37654;51.262;17.058;2023-01-19T01:30:17;98282.22;;;1.33
51561;BMP280;37654;51.262;17.058;2023-01-19T01:32:43;98284.78;;;1.31
51561;BMP280;37654;51.262;17.058;2023-01-19T01:35:09;98286.44;;;1.34
51561;BMP280;37654;51.262;17.058;2023-01-19T01:37:35;98283.97;;;1.23
51561;BMP280;37654;51.262;17.058;2023-01-19T01:40:02;98287.44;;;1.15
51561;BMP280;37654;51.262;17.058;2023-01-19T01:42:30;98285.75;;;1.15
51561;BMP280;37654;51.262;17.058;2023-01-19T01:44:57;98287.44;;;1.15
51561;BMP280;37654;51.262;17.058;2023-01-19T01:47:42;98295.97;;;1.14
51561;BMP280;37654;51.262;17.058;2023-01-19T01:50:16;98292.56;;;1.13
51561;BMP280;37654;51.262;17.058;2023-01-19T01:52:51;98295.97;;;1.14
51561;BMP280;37654;51.262;17.058;2023-01-19T01:55:21;98294.25;;;1.16
51561;BMP280;37654;51.262;17.058;2023-01-19T01:57:54;98290.88;;;1.11
51561;BMP280;37654;51.262;17.058;2023-01-19T02:00:23;98290.00;;;1.12
51561;BMP280;37654;51.262;17.058;2023-01-19T02:02:48;98297.66;;;1.12
51561;BMP280;37654;51.262;17.058;2023-01-19T02:05:25;98300.25;;;1.10
51561;BMP280;37654;51.262;17.058;2023-01-19T02:10:54;98304.50;;;1.08
51561;BMP280;37654;51.262;17.058;2023-01-19T02:13:37;98304.47;;;1.13
51561;BMP280;37654;51.262;17.058;2023-01-19T02:16:07;98307.88;;;1.13
51561;BMP280;37654;51.262;17.058;2023-01-19T02:18:33;98310.44;;;1.13
51561;BMP280;37654;51.262;17.058;2023-01-19T02:21:18;98309.59;;;1.08
51561;BMP280;37654;51.262;17.058;2023-01-19T02:23:49;98303.66;;;1.08
51561;BMP280;37654;51.262;17.058;2023-01-19T02:28:59;98298.56;;;1.05
51561;BMP280;37654;51.262;17.058;2023-01-19T02:31:26;98307.94;;;1.05
51561;BMP280;37654;51.262;17.058;2023-01-19T02:33:53;98313.91;;;1.04
51561;BMP280;37654;51.262;17.058;2023-01-19T02:36:22;98313.94;;;0.99
51561;BMP280;37654;51.262;17.058;2023-01-19T02:38:51;98317.38;;;0.91
51561;BMP280;37654;51.262;17.058;2023-01-19T02:41:19;98310.50;;;1.00
51561;BMP280;37654;51.262;17.058;2023-01-19T02:43:47;98307.94;;;1.05
51561;BMP280;37654;51.262;17.058;2023-01-19T02:46:14;98319.00;;;1.01
51561;BMP280;37654;51.262;17.058;2023-01-19T02:48:42;98313.94;;;0.99
51561;BMP280;37654;51.262;17.058;2023-01-19T02:51:20;98316.47;;;0.99
51561;BMP280;37654;51.262;17.058;2023-01-19T02:59:28;98321.59;;;0.96
51561;BMP280;37654;51.262;17.058;2023-01-19T03:04:58;98310.56;;;0.93
51561;BMP280;37654;51.262;17.058;2023-01-19T03:10:09;98305.47;;;0.93
51561;BMP280;37654;51.262;17.058;2023-01-19T03:12:45;98313.13;;;0.90
51561;BMP280;37654;51.262;17.058;2023-01-19T03:15:25;98318.22;;;0.90
51561;BMP280;37654;51.262;17.058;2023-01-19T03:17:56;98319.94;;;0.88
51561;BMP280;37654;51.262;17.058;2023-01-19T03:20:23;98323.31;;;0.90
51561;BMP280;37654;51.262;17.058;2023-01-19T03:22:54;98326.72;;;0.87
51561;BMP280;37654;51.262;17.058;2023-01-19T03:25:22;98325.06;;;0.81
51561;BMP280;37654;51.262;17.058;2023-01-19T03:27:49;98312.34;;;0.78
51561;BMP280;37654;51.262;17.058;2023-01-19T03:30:21;98302.16;;;0.79
51561;BMP280;37654;51.262;17.058;2023-01-19T03:32:59;98311.47;;;0.83
51561;BMP280;37654;51.262;17.058;2023-01-19T03:35:30;98314.00;;;0.84
51561;BMP280;37654;51.262;17.058;2023-01-19T03:37:57;98321.66;;;0.83
51561;BMP280;37654;51.262;17.058;2023-01-19T03:40:26;98325.91;;;0.81
51561;BMP280;37654;51.262;17.058;2023-01-19T03:42:54;98321.66;;;0.83
51561;BMP280;37654;51.262;17.058;2023-01-19T03:45:20;98325.09;;;0.79
51561;BMP280;37654;51.262;17.058;2023-01-19T03:47:46;98319.13;;;0.83
51561;BMP280;37654;51.262;17.058;2023-01-19T03:50:24;98308.03;;;0.87
51561;BMP280;37654;51.262;17.058;2023-01-19T03:53:10;98321.69;;;0.79
51561;BMP280;37654;51.262;17.058;2023-01-19T03:55:37;98320.81;;;0.81
51561;BMP280;37654;51.262;17.058;2023-01-19T03:58:03;98318.31;;;0.75
51561;BMP280;37654;51.262;17.058;2023-01-19T04:00:29;98320.03;;;0.75
51561;BMP280;37654;51.262;17.058;2023-01-19T04:02:54;98318.38;;;0.65
51561;BMP280;37654;51.262;17.058;2023-01-19T04:05:20;98317.53;;;0.64
51561;BMP280;37654;51.262;17.058;2023-01-19T04:07:50;98326.03;;;0.65
51561;BMP280;37654;51.262;17.058;2023-01-19T04:10:19;98331.09;;;0.63
51561;BMP280;37654;51.262;17.058;2023-01-19T04:12:45;98330.25;;;0.66
51561;BMP280;37654;51.262;17.058;2023-01-19T04:15:11;98327.72;;;0.64
51561;BMP280;37654;51.262;17.058;2023-01-19T04:17:37;98331.09;;;0.63
51561;BMP280;37654;51.262;17.058;2023-01-19T04:20:03;98331.09;;;0.66
51561;BMP280;37654;51.262;17.058;2023-01-19T04:22:28;98326.88;;;0.62
51561;BMP280;37654;51.262;17.058;2023-01-19T04:24:53;98341.31;;;0.65
51561;BMP280;37654;51.262;17.058;2023-01-19T04:27:19;98348.94;;;0.66
51561;BMP280;37654;51.262;17.058;2023-01-19T04:29:45;98348.94;;;0.66
51561;BMP280;37654;51.262;17.058;2023-01-19T04:32:12;98348.94;;;0.68
51561;BMP280;37654;51.262;17.058;2023-01-19T04:34:38;98354.03;;;0.68
51561;BMP280;37654;51.262;17.058;2023-01-19T04:37:03;98354.03;;;0.63
51561;BMP280;37654;51.262;17.058;2023-01-19T04:39:29;98351.50;;;0.63
51561;BMP280;37654;51.262;17.058;2023-01-19T04:41:54;98351.47;;;0.69
51561;BMP280;37654;51.262;17.058;2023-01-19T04:44:21;98356.56;;;0.69
51561;BMP280;37654;51.262;17.058;2023-01-19T04:46:47;98353.16;;;0.67
51561;BMP280;37654;51.262;17.058;2023-01-19T04:49:12;98362.56;;;0.64
51561;BMP280;37654;51.262;17.058;2023-01-19T04:51:38;98374.44;;;0.66
51561;BMP280;37654;51.262;17.058;2023-01-19T04:54:04;98375.28;;;0.71
51561;BMP280;37654;51.262;17.058;2023-01-19T04:56:29;98381.22;;;0.66
51561;BMP280;37654;51.262;17.058;2023-01-19T04:58:55;98375.28;;;0.71
51561;BMP280;37654;51.262;17.058;2023-01-19T05:01:20;98399.03;;;0.70
51561;BMP280;37654;51.262;17.058;2023-01-19T05:03:45;98416.91;;;0.67
51561;BMP280;37654;51.262;17.058;2023-01-19T05:06:11;98421.16;;;0.65
51561;BMP280;37654;51.262;17.058;2023-01-19T05:08:36;98410.97;;;0.65
51561;BMP280;37654;51.262;17.058;2023-01-19T05:11:02;98434.72;;;0.70
51561;BMP280;37654;51.262;17.058;2023-01-19T05:13:28;98433.03;;;0.72
51561;BMP280;37654;51.262;17.058;2023-01-19T05:15:53;98442.34;;;0.78
51561;BMP280;37654;51.262;17.058;2023-01-19T05:18:18;98448.34;;;0.75
51561;BMP280;37654;51.262;17.058;2023-01-19T05:20:44;98455.97;;;0.77
51561;BMP280;37654;51.262;17.058;2023-01-19T05:23:10;98455.13;;;0.70
51561;BMP280;37654;51.262;17.058;2023-01-19T05:25:35;98456.84;;;0.68
51561;BMP280;37654;51.262;17.058;2023-01-19T05:28:01;98456.84;;;0.71
51561;BMP280;37654;51.262;17.058;2023-01-19T05:30:27;98450.88;;;0.74
51561;BMP280;37654;51.262;17.058;2023-01-19T05:32:53;98442.38;;;0.73
51561;BMP280;37654;51.262;17.058;2023-01-19T05:35:18;98428.81;;;0.65
51561;BMP280;37654;51.262;17.058;2023-01-19T05:37:44;98431.34;;;0.70
51561;BMP280;37654;51.262;17.058;2023-01-19T05:40:10;98433.03;;;0.71
51561;BMP280;37654;51.262;17.058;2023-01-19T05:42:35;98439.81;;;0.73
51561;BMP280;37654;51.262;17.058;2023-01-19T05:45:01;98445.75;;;0.77
51561;BMP280;37654;51.262;17.058;2023-01-19T05:47:29;98436.44;;;0.71
51561;BMP280;37654;51.262;17.058;2023-01-19T05:49:55;98443.22;;;0.71
51561;BMP280;37654;51.262;17.058;2023-01-19T05:52:20;98431.34;;;0.70
51561;BMP280;37654;51.262;17.058;2023-01-19T05:54:46;98441.56;;;0.68
51561;BMP280;37654;51.262;17.058;2023-01-19T05:57:13;98446.66;;;0.68
51561;BMP280;37654;51.262;17.058;2023-01-19T05:59:38;98446.66;;;0.62
51561;BMP280;37654;51.262;17.058;2023-01-19T06:02:04;98449.22;;;0.59
51561;BMP280;37654;51.262;17.058;2023-01-19T06:04:29;98452.63;;;0.61
51561;BMP280;37654;51.262;17.058;2023-01-19T06:06:55;98444.97;;;0.60
51561;BMP280;37654;51.262;17.058;2023-01-19T06:09:20;98460.25;;;0.64
51561;BMP280;37654;51.262;17.058;2023-01-19T06:11:46;98461.09;;;0.59
51561;BMP280;37654;51.262;17.058;2023-01-19T06:14:12;98473.88;;;0.60
51561;BMP280;37654;51.262;17.058;2023-01-19T06:16:38;98481.50;;;0.62
51561;BMP280;37654;51.262;17.058;2023-01-19T06:19:03;98493.34;;;0.67
51561;BMP280;37654;51.262;17.058;2023-01-19T06:21:29;98497.63;;;0.71
51561;BMP280;37654;51.262;17.058;2023-01-19T06:23:54;98489.13;;;0.72
51561;BMP280;37654;51.262;17.058;2023-01-19T06:26:20;98509.50;;;0.72
51561;BMP280;37654;51.262;17.058;2023-01-19T06:28:45;98501.88;;;0.63
51561;BMP280;37654;51.262;17.058;2023-01-19T06:31:13;98519.72;;;0.63
51561;BMP280;37654;51.262;17.058;2023-01-19T06:33:38;98511.25;;;0.64
51561;BMP280;37654;51.262;17.058;2023-01-19T06:36:04;98517.19;;;0.68
51561;BMP280;37654;51.262;17.058;2023-01-19T06:38:29;98511.19;;;0.70
51561;BMP280;37654;51.262;17.058;2023-01-19T06:40:57;98505.25;;;0.73
51561;BMP280;37654;51.262;17.058;2023-01-19T06:43:23;98512.94;;;0.71
51561;BMP280;37654;51.262;17.058;2023-01-19T06:45:49;98519.69;;;0.71
51561;BMP280;37654;51.262;17.058;2023-01-19T06:48:15;98523.13;;;0.71
51561;BMP280;37654;51.262;17.058;2023-01-19T06:50:44;98515.47;;;0.73
51561;BMP280;37654;51.262;17.058;2023-01-19T06:53:09;98538.38;;;0.77
51561;BMP280;37654;51.262;17.058;2023-01-19T06:55:35;98527.34;;;0.74
51561;BMP280;37654;51.262;17.058;2023-01-19T06:58:01;98540.09;;;0.74
51561;BMP280;37654;51.262;17.058;2023-01-19T07:00:26;98535.84;;;0.74
51561;BMP280;37654;51.262;17.058;2023-01-19T07:02:53;98547.75;;;0.78
51561;BMP280;37654;51.262;17.058;2023-01-19T07:05:18;98536.69;;;0.73
51561;BMP280;37654;51.262;17.058;2023-01-19T07:07:44;98549.47;;;0.75
51561;BMP280;37654;51.262;17.058;2023-01-19T07:10:10;98550.31;;;0.78
51561;BMP280;37654;51.262;17.058;2023-01-19T07:12:37;98551.16;;;0.71
51561;BMP280;37654;51.262;17.058;2023-01-19T07:15:03;98552.00;;;0.75
51561;BMP280;37654;51.262;17.058;2023-01-19T07:17:29;98557.06;;;0.78
51561;BMP280;37654;51.262;17.058;2023-01-19T07:19:54;98550.28;;;0.77
51561;BMP280;37654;51.262;17.058;2023-01-19T07:22:19;98555.38;;;0.77
51561;BMP280;37654;51.262;17.058;2023-01-19T07:24:45;98552.00;;;0.73
51561;BMP280;37654;51.262;17.058;2023-01-19T07:27:10;98546.91;;;0.72
51561;BMP280;37654;51.262;17.058;2023-01-19T07:29:36;98549.47;;;0.69
51561;BMP280;37654;51.262;17.058;2023-01-19T07:32:02;98552.00;;;0.69
51561;BMP280;37654;51.262;17.058;2023-01-19T07:34:28;98543.50;;;0.68
51561;BMP280;37654;51.262;17.058;2023-01-19T07:36:54;98552.00;;;0.70
51561;BMP280;37654;51.262;17.058;2023-01-19T07:39:20;98548.56;;;0.74
51561;BMP280;37654;51.262;17.058;2023-01-19T07:41:47;98565.59;;;0.78
51561;BMP280;37654;51.262;17.058;2023-01-19T07:44:13;98566.44;;;0.82
51561;BMP280;37654;51.262;17.058;2023-01-19T07:46:38;98563.88;;;0.77
51561;BMP280;37654;51.262;17.058;2023-01-19T07:49:04;98561.31;;;0.80
51561;BMP280;37654;51.262;17.058;2023-01-19T07:51:29;98560.50;;;0.75
51561;BMP280;37654;51.262;17.058;2023-01-19T07:53:54;98548.56;;;0.77
51561;BMP280;37654;51.262;17.058;2023-01-19T07:56:20;98555.38;;;0.81
51561;BMP280;37654;51.262;17.058;2023-01-19T07:58:46;98551.13;;;0.80
51561;BMP280;37654;51.262;17.058;2023-01-19T08:01:13;98548.56;;;0.83
51561;BMP280;37654;51.262;17.058;2023-01-19T08:03:39;98544.31;;;0.81
51561;BMP280;37654;51.262;17.058;2023-01-19T08:06:05;98540.94;;;0.74
51561;BMP280;37654;51.262;17.058;2023-01-19T08:08:32;98538.38;;;0.74
51561;BMP280;37654;51.262;17.058;2023-01-19T08:10:57;98544.34;;;0.79
51561;BMP280;37654;51.262;17.058;2023-01-19T08:13:23;98537.53;;;0.81
51561;BMP280;37654;51.262;17.058;2023-01-19T08:15:52;98542.63;;;0.82
51561;BMP280;37654;51.262;17.058;2023-01-19T08:18:19;98549.41;;;0.89
51561;BMP280;37654;51.262;17.058;2023-01-19T08:20:45;98551.09;;;0.96
51561;BMP280;37654;51.262;17.058;2023-01-19T08:23:10;98563.00;;;0.91
51561;BMP280;37654;51.262;17.058;2023-01-19T08:25:41;98567.25;;;1.00
51561;BMP280;37654;51.262;17.058;2023-01-19T08:28:09;98573.19;;;1.02
51561;BMP280;37654;51.262;17.058;2023-01-19T08:30:35;98579.13;;;0.95
51561;BMP280;37654;51.262;17.058;2023-01-19T08:33:00;98579.97;;;0.98
51561;BMP280;37654;51.262;17.058;2023-01-19T08:35:33;98587.66;;;0.97
51561;BMP280;37654;51.262;17.058;2023-01-19T08:38:00;98584.25;;;0.99
51561;BMP280;37654;51.262;17.058;2023-01-19T08:40:34;98595.28;;;1.01
51561;BMP280;37654;51.262;17.058;2023-01-19T08:43:14;98595.31;;;1.00
51561;BMP280;37654;51.262;17.058;2023-01-19T08:45:45;98590.19;;;1.04
51561;BMP280;37654;51.262;17.058;2023-01-19T08:48:12;98591.91;;;0.96
51561;BMP280;37654;51.262;17.058;2023-01-19T08:50:39;98596.13;;;1.08
51561;BMP280;37654;51.262;17.058;2023-01-19T08:53:04;98605.47;;;1.07
51561;BMP280;37654;51.262;17.058;2023-01-19T08:55:34;98608.84;;;1.09
51561;BMP280;37654;51.262;17.058;2023-01-19T08:58:00;98599.50;;;1.15
51561;BMP280;37654;51.262;17.058;2023-01-19T09:00:28;98596.97;;;1.14
51561;BMP280;37654;51.262;17.058;2023-01-19T09:02:56;98602.88;;;1.20
51561;BMP280;37654;51.262;17.058;2023-01-19T09:05:22;98602.03;;;1.26
51561;BMP280;37654;51.262;17.058;2023-01-19T09:07:47;98596.91;;;1.30
51561;BMP280;37654;51.262;17.058;2023-01-19T09:10:15;98607.97;;;1.26
51561;BMP280;37654;51.262;17.058;2023-01-19T09:12:40;98606.28;;;1.25
51561;BMP280;37654;51.262;17.058;2023-01-19T09:15:06;98619.84;;;1.36
51561;BMP280;37654;51.262;17.058;2023-01-19T09:17:32;98625.75;;;1.48
51561;BMP280;37654;51.262;17.058;2023-01-19T09:19:57;98625.75;;;1.50
51561;BMP280;37654;51.262;17.058;2023-01-19T09:22:23;98620.69;;;1.38
51561;BMP280;37654;51.262;17.058;2023-01-19T09:24:48;98636.88;;;1.31
51561;BMP280;37654;51.262;17.058;2023-01-19T09:27:14;98636.00;;;1.38
51561;BMP280;37654;51.262;17.058;2023-01-19T09:29:39;98628.28;;;1.54
51561;BMP280;37654;51.262;17.058;2023-01-19T09:32:05;98631.69;;;1.58
51561;BMP280;37654;51.262;17.058;2023-01-19T09:34:30;98628.25;;;1.62
51561;BMP280;37654;51.262;17.058;2023-01-19T09:36:56;98632.50;;;1.68
51561;BMP280;37654;51.262;17.058;2023-01-19T09:39:21;98632.50;;;1.68
51561;BMP280;37654;51.262;17.058;2023-01-19T09:42:01;98633.31;;;1.75
51561;BMP280;37654;51.262;17.058;2023-01-19T09:44:34;98631.59;;;1.77
51561;BMP280;37654;51.262;17.058;2023-01-19T09:47:12;98627.28;;;1.90
51561;BMP280;37654;51.262;17.058;2023-01-19T09:49:41;98626.41;;;1.99
51561;BMP280;37654;51.262;17.058;2023-01-19T09:52:11;98632.38;;;1.90
51561;BMP280;37654;51.262;17.058;2023-01-19T09:54:47;98629.84;;;1.89
51561;BMP280;37654;51.262;17.058;2023-01-19T09:57:14;98620.50;;;1.88
51561;BMP280;37654;51.262;17.058;2023-01-19T09:59:40;98617.78;;;2.09
51561;BMP280;37654;51.262;17.058;2023-01-19T10:10:38;98610.19;;;2.03
51561;BMP280;37654;51.262;17.058;2023-01-19T10:13:24;98607.44;;;2.32
51561;BMP280;37654;51.262;17.058;2023-01-19T10:18:45;98602.41;;;2.17
51561;BMP280;37654;51.262;17.058;2023-01-19T10:24:33;98605.00;;;2.15
51561;BMP280;37654;51.262;17.058;2023-01-19T10:27:01;98602.41;;;2.17
51561;BMP280;37654;51.262;17.058;2023-01-19T10:29:35;98603.19;;;2.31
51561;BMP280;37654;51.262;17.058;2023-01-19T10:32:10;98605.66;;;2.40
51561;BMP280;37654;51.262;17.058;2023-01-19T10:34:38;98609.09;;;2.33
51561;BMP280;37654;51.262;17.058;2023-01-19T10:37:17;98607.28;;;2.50
51561;BMP280;37654;51.262;17.058;2023-01-19T10:39:57;98601.38;;;2.44
51561;BMP280;37654;51.262;17.058;2023-01-19T10:42:26;98603.16;;;2.33
51561;BMP280;37654;51.262;17.058;2023-01-19T10:44:52;98606.63;;;2.24
51561;BMP280;37654;51.262;17.058;2023-01-19T10:47:19;98612.41;;;2.47
51561;BMP280;37654;51.262;17.058;2023-01-19T10:49:46;98613.38;;;2.36
51561;BMP280;37654;51.262;17.058;2023-01-19T10:54:53;98615.69;;;2.65
51561;BMP280;37654;51.262;17.058;2023-01-19T10:57:35;98616.59;;;2.60
51561;BMP280;37654;51.262;17.058;2023-01-19T11:00:05;98618.25;;;2.64
51561;BMP280;37654;51.262;17.058;2023-01-19T11:02:31;98624.97;;;2.75
51561;BMP280;37654;51.262;17.058;2023-01-19T11:04:58;98618.25;;;2.65
51561;BMP280;37654;51.262;17.058;2023-01-19T11:07:31;98627.75;;;2.47
51561;BMP280;37654;51.262;17.058;2023-01-19T11:12:45;98625.31;;;2.29
51561;BMP280;37654;51.262;17.058;2023-01-19T11:15:23;98626.03;;;2.50
51561;BMP280;37654;51.262;17.058;2023-01-19T11:17:49;98617.31;;;2.75
51561;BMP280;37654;51.262;17.058;2023-01-19T11:20:22;98606.09;;;2.89
51561;BMP280;37654;51.262;17.058;2023-01-19T11:23:03;98600.75;;;3.13
51561;BMP280;37654;51.262;17.058;2023-01-19T11:25:31;98607.47;;;3.23
51561;BMP280;37654;51.262;17.058;2023-01-19T11:27:57;98598.06;;;3.26
51561;BMP280;37654;51.262;17.058;2023-01-19T11:30:24;98608.41;;;3.16
51561;BMP280;37654;51.262;17.058;2023-01-19T11:32:50;98602.22;;;3.34
51561;BMP280;37654;51.262;17.058;2023-01-19T11:35:45;98603.13;;;3.29
51561;BMP280;37654;51.262;17.058;2023-01-19T11:38:15;98601.63;;;3.83
51561;BMP280;37654;51.262;17.058;2023-01-19T11:40:51;98590.41;;;4.48
51561;BMP280;37654;51.262;17.058;2023-01-19T11:43:19;98589.09;;;4.74
51561;BMP280;37654;51.262;17.058;2023-01-19T11:45:45;98589.84;;;4.82
51561;BMP280;37654;51.262;17.058;2023-01-19T11:48:21;98597.91;;;4.61
51561;BMP280;37654;51.262;17.058;2023-01-19T11:50:48;98592.78;;;4.61
51561;BMP280;37654;51.262;17.058;2023-01-19T11:53:22;98576.72;;;4.99
51561;BMP280;37654;51.262;17.058;2023-01-19T11:56:01;98587.47;;;4.16
51561;BMP280;37654;51.262;17.058;2023-01-19T11:58:29;98586.53;;;4.75
51561;BMP280;37654;51.262;17.058;2023-01-19T12:01:00;98580.91;;;4.53
51561;BMP280;37654;51.262;17.058;2023-01-19T12:03:37;98570.97;;;4.84
51561;BMP280;37654;51.262;17.058;2023-01-19T12:06:06;98568.50;;;4.80
51561;BMP280;37654;51.262;17.058;2023-01-19T12:08:44;98567.78;;;5.18
51561;BMP280;37654;51.262;17.058;2023-01-19T12:11:16;98559.41;;;5.10
51561;BMP280;37654;51.262;17.058;2023-01-19T12:13:44;98563.00;;;4.99
51561;BMP280;37654;51.262;17.058;2023-01-19T12:16:21;98559.72;;;4.92
51561;BMP280;37654;51.262;17.058;2023-01-19T12:18:52;98560.53;;;4.94
51561;BMP280;37654;51.262;17.058;2023-01-19T12:21:20;98564.91;;;5.76
51561;BMP280;37654;51.262;17.058;2023-01-19T12:26:37;98555.19;;;6.63
51561;BMP280;37654;51.262;17.058;2023-01-19T12:29:12;98556.16;;;6.57
51561;BMP280;37654;51.262;17.058;2023-01-19T12:31:39;98544.13;;;6.58
51561;BMP280;37654;51.262;17.058;2023-01-19T12:36:51;98553.25;;;6.36
51561;BMP280;37654;51.262;17.058;2023-01-19T12:39:20;98539.88;;;6.57
51561;BMP280;37654;51.262;17.058;2023-01-19T12:41:47;98548.56;;;6.17
51561;BMP280;37654;51.262;17.058;2023-01-19T12:44:13;98547.94;;;6.78
51561;BMP280;37654;51.262;17.058;2023-01-19T12:51:51;98549.19;;;6.62
51561;BMP280;37654;51.262;17.058;2023-01-19T12:54:30;98554.03;;;6.74
51561;BMP280;37654;51.262;17.058;2023-01-19T12:57:02;98547.47;;;7.27
51561;BMP280;37654;51.262;17.058;2023-01-19T12:59:32;98560.88;;;6.75
51561;BMP280;37654;51.262;17.058;2023-01-19T13:05:12;98550.66;;;8.49
51561;BMP280;37654;51.262;17.058;2023-01-19T13:13:18;98568.63;;;9.28
51561;BMP280;37654;51.262;17.058;2023-01-19T13:15:44;98576.88;;;8.63
51561;BMP280;37654;51.262;17.058;2023-01-19T13:18:17;98580.09;;;8.17
51561;BMP280;37654;51.262;17.058;2023-01-19T13:21:00;98574.34;;;7.49
51561;BMP280;37654;51.262;17.058;2023-01-19T13:23:28;98559.47;;;6.28
51561;BMP280;37654;51.262;17.058;2023-01-19T13:26:09;98544.34;;;4.43
51561;BMP280;37654;51.262;17.058;2023-01-19T13:28:40;98527.44;;;4.32
51561;BMP280;37654;51.262;17.058;2023-01-19T13:31:06;98526.72;;;4.23
51561;BMP280;37654;51.262;17.058;2023-01-19T13:33:45;98535.22;;;4.25
51561;BMP280;37654;51.262;17.058;2023-01-19T13:36:31;98553.63;;;3.95
51561;BMP280;37654;51.262;17.058;2023-01-19T13:39:00;98553.16;;;3.67
51561;BMP280;37654;51.262;17.058;2023-01-19T13:41:34;98560.72;;;3.77
51561;BMP280;37654;51.262;17.058;2023-01-19T13:44:01;98571.09;;;3.67
51561;BMP280;37654;51.262;17.058;2023-01-19T13:46:27;98576.97;;;3.72
51561;BMP280;37654;51.262;17.058;2023-01-19T13:48:56;98582.38;;;3.53
51561;BMP280;37654;51.262;17.058;2023-01-19T13:51:23;98573.66;;;3.67
51561;BMP280;37654;51.262;17.058;2023-01-19T13:53:56;98575.44;;;3.62
51561;BMP280;37654;51.262;17.058;2023-01-19T13:56:25;98577.34;;;3.45
51561;BMP280;37654;51.262;17.058;2023-01-19T13:59:14;98583.19;;;3.56
51561;BMP280;37654;51.262;17.058;2023-01-19T14:01:42;98585.03;;;3.45
51561;BMP280;37654;51.262;17.058;2023-01-19T14:04:23;98592.16;;;3.18
51561;BMP280;37654;51.262;17.058;2023-01-19T14:06:49;98591.47;;;3.03
51561;BMP280;37654;51.262;17.058;2023-01-19T14:09:18;98591.56;;;2.93
51561;BMP280;37654;51.262;17.058;2023-01-19T14:11:46;98589.94;;;2.83
51561;BMP280;37654;51.262;17.058;2023-01-19T14:14:25;98601.81;;;2.94
51561;BMP280;37654;51.262;17.058;2023-01-19T14:16:51;98588.88;;;3.04
51561;BMP280;37654;51.262;17.058;2023-01-19T14:19:16;98594.91;;;2.99
51561;BMP280;37654;51.262;17.058;2023-01-19T14:21:42;98603.63;;;2.80
51561;BMP280;37654;51.262;17.058;2023-01-19T14:24:15;98602.78;;;2.80
51561;BMP280;37654;51.262;17.058;2023-01-19T14:26:52;98601.22;;;2.66
51561;BMP280;37654;51.262;17.058;2023-01-19T14:29:25;98609.75;;;2.62
51561;BMP280;37654;51.262;17.058;2023-01-19T14:37:00;98604.66;;;2.60
51561;BMP280;37654;51.262;17.058;2023-01-19T14:39:30;98599.56;;;2.57
51561;BMP280;37654;51.262;17.058;2023-01-19T14:41:58;98608.22;;;2.37
51561;BMP280;37654;51.262;17.058;2023-01-19T14:44:31;98599.78;;;2.31
51561;BMP280;37654;51.262;17.058;2023-01-19T14:46:58;98610.09;;;2.17
51561;BMP280;37654;51.262;17.058;2023-01-19T14:51:52;98606.13;;;1.66
51561;BMP280;37654;51.262;17.058;2023-01-19T14:54:26;98609.56;;;1.60
51561;BMP280;37654;51.262;17.058;2023-01-19T14:56:53;98607.09;;;1.42
51561;BMP280;37654;51.262;17.058;2023-01-19T14:59:19;98618.16;;;1.35
51561;BMP280;37654;51.262;17.058;2023-01-19T15:01:44;98636.03;;;1.32
51561;BMP280;37654;51.262;17.058;2023-01-19T15:04:10;98636.03;;;1.29
51561;BMP280;37654;51.262;17.058;2023-01-19T15:06:39;98636.03;;;1.20
51561;BMP280;37654;51.262;17.058;2023-01-19T15:09:05;98636.06;;;1.14
51561;BMP280;37654;51.262;17.058;2023-01-19T15:11:32;98637.78;;;1.01
51561;BMP280;37654;51.262;17.058;2023-01-19T15:13:59;98640.38;;;0.89
51561;BMP280;37654;51.262;17.058;2023-01-19T15:16:25;98658.22;;;0.71
51561;BMP280;37654;51.262;17.058;2023-01-19T15:18:52;98658.19;;;0.56